PAKWPASI

Guest
Details From PAKW - Klawock
To PASI - Sitka Rocky Gutierrez
Flight Number -
Tags Generated
Created
Modified
Stats Distance 117 nm / 217 km
Max Altitude 0 ft / 0 m
Waypoints 2
Social Downloads 1
Likes 0
Share VATSIM

Download

Looking for another format? Having issues loading an existing format? Contact us
Advertisement - Login to hide

Notes

Generated

Route

PAKW PASI

ID Type Via Altitude Latitude Longitude Leg Dist Tot Dist Heading (true) Name
O PAKW APT - 0 ft / 0 m 55.57392˚ -133.08362˚ - 0 nm - -
O PASI APT - 0 ft / 0 m 57.05347˚ -135.37303˚ 117 nm 117 nm 320° / 318° -

Altitude Profile

Advertisement - Login to hide

PAKW

Details ICAO PAKW (KLW)
Name KLAWOCK
Region USA (Alaska)
Timezone Unknown (UTC+0.0)
Stats Elevation 80 ft / 24 m (AMSL)
Location 55.579232° -133.075997°
Runways 1
Magnetic Variation 18.438° E

METAR

Not found

TAF

TAF PAKW 272330Z 2800/2824 18006KT 6SM -SHRA BKN025 OVC035 FM281100 18008KT P6SM -SHRA SCT020 OVC030 TEMPO 2815/2818 5SM SHRA BR OVC018 FM281800 21010G18KT P6SM -SHRA OVC035 AMD LTD TO CLD VIS AND WIND

Decode

Departure Runways

ID Width Length Bearing (true) Bearing (mag) Surface Threshold Offset Overrun Length
02 100 ft / 30 m 4,991 ft / 1,521 m 39.06° 20.62° Asphalt 0 ft / 0 m 0 ft / 0 m
20 100 ft / 30 m 4,991 ft / 1,521 m 219.07° 200.63° Asphalt 0 ft / 0 m 0 ft / 0 m

PASI

Details ICAO PASI (SIT)
Name SITKA ROCKY GUTIERREZ
Region USA (Alaska)
Timezone America/Juneau (UTC-8.0)
Stats Elevation 21 ft / 6 m (AMSL)
Location 57.047128° -135.361597°
Runways 1
Magnetic Variation 18.629° E

METAR

Not found

TAF

PASI 272330Z 2800/2824 19012G20KT P6SM VCSH SCT025 BKN040 BKN080 FM280600 13008KT P6SM -SHRA SCT015 BKN025 OVC040 TEMPO 2809/2813 20012G20KT 5SM SHRA BR BKN015 FM281300 18009G18KT 6SM -SHRA BR BKN018 OVC030 FM281600 14012G20KT P6SM -SHRA SCT020 OVC030

Decode

Destination Runways

ID Width Length Bearing (true) Bearing (mag) Surface Threshold Offset Overrun Length
11 150 ft / 46 m 6,485 ft / 1,977 m 135.57° 116.94° Asphalt 0 ft / 0 m 0 ft / 0 m
29 150 ft / 46 m 6,485 ft / 1,977 m 315.59° 296.96° Asphalt 0 ft / 0 m 0 ft / 0 m

Approach Navaids

Runway Type Ident Frequency Range Bearing (true) Bearing (mag) Slope Elevation
11 Localiser ISIT 108.90 MHz 18 nm / 33 km 143.51° 124.88° - 15 ft / 5 m (AMSL)
11 DME ISIT 108.90 MHz 18 nm / 33 km - - - 34 ft / 10 m (AMSL)